Time;durP1;ratioP1;P1;durP2;ratioP2;P2;SDS_P1;SDS_P2;PMS_P1;PMS_P2;Temp;Humidity;BMP_temperature;BMP_pressure;BME280_temperature;BME280_humidity;BME280_pressure;Samples;Min_cycle;Max_cycle;Signal;HPM_P1;HPM_P2
2022/09/23 00:01:31;;;;;;;13.27;12.07;;;;;;;7.13;100.00;162429.22;4991847;28;20022;-64
2022/09/23 00:03:58;;;;;;;14.65;12.23;;;;;;;7.15;100.00;162434.63;4989563;28;20046;-64
2022/09/23 00:06:24;;;;;;;12.88;11.48;;;;;;;7.15;100.00;162434.63;4991225;28;20394;-64
2022/09/23 00:08:50;;;;;;;14.43;12.32;;;;;;;7.13;100.00;162429.22;4990015;28;20039;-64
2022/09/23 00:11:21;;;;;;;12.38;10.88;;;;;;;7.15;100.00;162434.63;4990937;28;20121;-62
2022/09/23 00:13:49;;;;;;;15.63;13.48;;;;;;;7.13;100.00;162429.22;4990169;28;20034;-62
2022/09/23 00:16:27;;;;;;;13.27;12.07;;;;;;;7.14;100.00;162431.94;4990850;28;20038;-64
2022/09/23 00:18:52;;;;;;;13.93;11.57;;;;;;;7.14;100.00;162431.94;4989958;28;20058;-64
2022/09/23 00:21:20;;;;;;;14.68;12.20;;;;;;;7.15;100.00;162434.63;4991327;28;20054;-63
2022/09/23 00:23:45;;;;;;;13.38;11.98;;;;;;;7.13;100.00;162430.59;4989581;28;20045;-63
2022/09/23 00:26:14;;;;;;;14.15;12.70;;;;;;;7.13;100.00;162429.22;4990833;28;20060;-66
2022/09/23 00:28:40;;;;;;;15.40;13.85;;;;;;;7.11;100.00;162423.88;4990271;28;20101;-66
2022/09/23 00:31:12;;;;;;;14.52;13.10;;;;;;;7.18;100.00;162442.72;4990832;28;20057;-67
2022/09/23 00:33:38;;;;;;;17.50;12.25;;;;;;;7.14;100.00;162431.94;4992206;28;20026;-66
2022/09/23 00:36:06;;;;;;;14.85;13.27;;;;;;;7.16;100.00;162437.31;4994968;28;20073;-67
2022/09/23 00:38:32;;;;;;;16.48;14.82;;;;;;;7.17;100.00;162440.03;4993333;28;20153;-67
2022/09/23 00:40:58;;;;;;;14.63;12.00;;;;;;;7.11;100.00;162425.19;4993761;28;20453;-67
2022/09/23 00:43:44;;;;;;;14.20;12.70;;;;;;;7.11;100.00;162425.19;4993059;28;20058;-66
2022/09/23 00:46:18;;;;;;;13.73;12.35;;;;;;;7.11;100.00;162423.88;4994791;28;20109;-67
2022/09/23 00:48:44;;;;;;;19.92;13.63;;;;;;;7.11;100.00;162423.88;4993151;28;20489;-65
2022/09/23 00:51:13;;;;;;;14.02;12.70;;;;;;;7.23;100.00;162456.19;4994636;28;20026;-66
2022/09/23 00:53:40;;;;;;;13.23;11.93;;;;;;;7.25;100.00;162461.59;4993420;28;20022;-66
2022/09/23 00:56:09;;;;;;;13.95;12.57;;;;;;;7.23;100.00;162456.19;4994243;28;20053;-65
2022/09/23 00:58:38;;;;;;;22.23;15.25;;;;;;;7.21;100.00;162449.47;4992720;28;20208;-65
2022/09/23 01:01:03;;;;;;;14.77;13.25;;;;;;;7.15;100.00;162435.94;4994412;28;20034;-65
2022/09/23 01:03:29;;;;;;;13.85;12.43;;;;;;;7.23;100.00;162456.19;4992811;28;20156;-65
2022/09/23 01:05:56;;;;;;;13.35;11.60;;;;;;;7.26;100.00;162464.22;4994242;28;20041;-65
2022/09/23 01:08:22;;;;;;;15.15;13.77;;;;;;;7.26;100.00;162464.22;4992814;28;20022;-66
2022/09/23 01:10:47;;;;;;;14.07;12.73;;;;;;;7.26;100.00;162464.22;4993738;28;20042;-66
2022/09/23 01:13:40;;;;;;;14.90;13.40;;;;;;;7.25;100.00;162461.59;4994258;28;20117;-66
2022/09/23 01:16:25;;;;;;;15.05;11.45;;;;;;;7.20;100.00;162446.75;4992525;28;20088;-66
2022/09/23 01:19:08;;;;;;;22.58;12.48;;;;;;;7.12;100.00;162426.53;4992438;28;20039;-66
2022/09/23 01:21:51;;;;;;;22.65;12.38;;;;;;;7.17;100.00;162440.03;4994263;28;20497;-66
2022/09/23 01:24:32;;;;;;;16.65;11.80;;;;;;;7.14;100.00;162433.31;4991935;28;20098;-64
2022/09/23 01:27:06;;;;;;;12.88;11.63;;;;;;;7.13;100.00;162429.22;4993378;28;20538;-64
2022/09/23 01:30:03;;;;;;;17.02;12.77;;;;;;;7.12;100.00;162426.53;4992686;28;20042;-64
2022/09/23 01:32:41;;;;;;;18.65;12.32;;;;;;;7.10;100.00;162421.19;4990547;28;20137;-64
2022/09/23 01:35:27;;;;;;;14.07;12.68;;;;;;;7.08;100.00;162417.09;4991974;28;20050;-64
2022/09/23 01:38:00;;;;;;;13.88;12.57;;;;;;;7.08;100.00;162415.78;4974825;28;20047;-65
2022/09/23 01:40:43;;;;;;;17.25;13.98;;;;;;;7.08;100.00;162415.78;4972470;28;20054;-67
2022/09/23 01:43:22;;;;;;;15.05;13.20;;;;;;;7.11;100.00;162423.88;4973633;28;20102;-67
2022/09/23 01:45:53;;;;;;;16.90;13.32;;;;;;;7.14;100.00;162433.31;4953690;29;20410;-67
2022/09/23 01:48:18;;;;;;;15.07;12.65;;;;;;;7.17;100.00;162438.66;4954694;28;20034;-64
2022/09/23 01:50:56;;;;;;;14.80;13.27;;;;;;;7.21;100.00;162450.78;4978122;28;20117;-64
2022/09/23 01:53:37;;;;;;;14.15;12.75;;;;;;;7.23;100.00;162454.81;4991968;28;20030;-64
2022/09/23 01:56:10;;;;;;;22.70;12.50;;;;;;;7.26;100.00;162464.22;4993023;28;20027;-63
2022/09/23 01:58:45;;;;;;;14.93;12.40;;;;;;;7.23;100.00;162456.19;4992309;28;20101;-63
2022/09/23 02:01:17;;;;;;;15.32;12.35;;;;;;;7.23;100.00;162456.19;4993008;28;20111;-63
2022/09/23 02:04:03;;;;;;;15.88;14.32;;;;;;;7.22;100.00;162453.47;4991376;28;20057;-63
2022/09/23 02:06:36;;;;;;;15.98;14.15;;;;;;;7.21;100.00;162449.47;4993727;28;20037;-63
2022/09/23 02:09:14;;;;;;;17.70;13.55;;;;;;;7.26;100.00;162462.91;4991297;28;20030;-63
2022/09/23 02:11:47;;;;;;;14.90;13.30;;;;;;;7.22;100.00;162453.47;4993130;28;20022;-63
2022/09/23 02:14:24;;;;;;;12.25;11.05;;;;;;;7.21;100.00;162450.78;4991711;28;20406;-63
2022/09/23 02:16:57;;;;;;;13.05;11.13;;;;;;;7.19;100.00;162445.38;4992932;28;20026;-63
2022/09/23 02:19:38;;;;;;;13.45;12.10;;;;;;;7.19;100.00;162445.38;4991326;28;20405;-63
2022/09/23 02:22:10;;;;;;;13.80;12.40;;;;;;;7.19;100.00;162445.38;4992976;28;20037;-63
2022/09/23 02:24:38;;;;;;;13.40;12.20;;;;;;;7.25;100.00;162460.22;4991190;28;20532;-64
2022/09/23 02:27:21;;;;;;;13.88;12.68;;;;;;;7.29;100.00;162472.34;4992766;28;20038;-63
2022/09/23 02:30:17;;;;;;;12.55;11.45;;;;;;;7.35;100.00;162485.78;4991375;28;20093;-63
2022/09/23 02:33:03;;;;;;;14.23;12.85;;;;;;;7.38;100.00;162493.91;4992503;28;20042;-63
2022/09/23 02:35:36;;;;;;;14.02;12.73;;;;;;;7.41;100.00;162502.00;4991589;28;20526;-63
2022/09/23 02:38:15;;;;;;;13.95;12.45;;;;;;;7.42;100.00;162504.66;4992373;28;20469;-63
2022/09/23 02:40:57;;;;;;;12.80;11.48;;;;;;;7.40;100.00;162500.63;4990512;28;20134;-63
2022/09/23 02:43:34;;;;;;;11.90;10.55;;;;;;;7.40;100.00;162499.28;4991430;28;20058;-62
2022/09/23 02:46:00;;;;;;;13.63;11.68;;;;;;;7.42;100.00;162504.66;4992486;28;20022;-63
2022/09/23 02:48:36;;;;;;;12.00;10.80;;;;;;;7.43;100.00;162508.72;4990968;28;20121;-62
2022/09/23 02:51:02;;;;;;;17.27;12.20;;;;;;;7.44;100.00;162510.06;4992082;28;20105;-63
2022/09/23 02:53:34;;;;;;;13.25;11.38;;;;;;;7.43;100.00;162508.72;4990684;28;20473;-65
2022/09/23 02:56:00;;;;;;;12.75;11.45;;;;;;;7.45;100.00;162514.06;4991457;28;20026;-66
2022/09/23 02:58:27;;;;;;;11.93;10.60;;;;;;;7.44;100.00;162510.06;4991088;28;20026;-66
2022/09/23 03:01:17;;;;;;;12.80;11.30;;;;;;;7.39;100.00;162497.91;4991597;28;20019;-64
2022/09/23 03:03:52;;;;;;;18.55;11.23;;;;;;;7.35;100.00;162485.78;4991026;28;20042;-64
2022/09/23 03:06:35;;;;;;;12.85;11.68;;;;;;;7.32;100.00;162477.75;4992211;28;20085;-64
2022/09/23 03:09:18;;;;;;;14.20;11.63;;;;;;;7.29;100.00;162472.34;4990385;28;20129;-64
2022/09/23 03:11:52;;;;;;;12.63;10.75;;;;;;;7.26;100.00;162464.22;4992405;28;20114;-64
2022/09/23 03:14:47;;;;;;;18.23;11.57;;;;;;;7.23;100.00;162454.81;4990359;28;20109;-64
2022/09/23 03:17:19;;;;;;;13.90;11.27;;;;;;;7.18;100.00;162442.72;4991838;28;20030;-64
2022/09/23 03:20:01;;;;;;;12.57;11.40;;;;;;;7.18;100.00;162442.72;4990195;28;20441;-64
2022/09/23 03:22:32;;;;;;;13.05;11.73;;;;;;;7.17;100.00;162440.03;4992277;28;20034;-64
2022/09/23 03:25:06;;;;;;;11.40;10.20;;;;;;;7.14;100.00;162431.94;4990115;28;20117;-64
2022/09/23 03:27:33;;;;;;;23.38;12.70;;;;;;;7.12;100.00;162426.53;4991688;28;20117;-62
2022/09/23 03:30:00;;;;;;;10.80;9.70;;;;;;;7.10;100.00;162421.19;4978971;28;20105;-62
2022/09/23 03:32:27;;;;;;;11.45;10.25;;;;;;;7.05;100.00;162409.03;4991610;28;20034;-63
2022/09/23 03:34:55;;;;;;;11.02;10.05;;;;;;;7.02;100.00;162399.63;4990396;28;20105;-63
2022/09/23 03:37:31;;;;;;;13.35;10.90;;;;;;;7.02;100.00;162399.63;4991644;28;20022;-60
2022/09/23 03:40:07;;;;;;;13.55;10.35;;;;;;;7.02;100.00;162399.63;4989929;28;20133;-60
2022/09/23 03:42:33;;;;;;;14.85;13.18;;;;;;;7.01;100.00;162396.91;4991690;28;20034;-62
2022/09/23 03:45:00;;;;;;;11.48;10.38;;;;;;;6.97;100.00;162388.81;4989891;28;20043;-62
2022/09/23 03:47:27;;;;;;;11.95;10.63;;;;;;;7.02;100.00;162399.63;4991588;28;20029;-62
2022/09/23 03:49:53;;;;;;;12.15;10.95;;;;;;;7.01;100.00;162396.91;4990289;28;20097;-63
2022/09/23 03:52:20;;;;;;;13.43;12.05;;;;;;;7.02;100.00;162399.63;4991726;28;20030;-62
2022/09/23 03:54:46;;;;;;;15.55;10.70;;;;;;;7.03;100.00;162402.31;4990012;28;20038;-62
2022/09/23 03:57:12;;;;;;;14.48;11.45;;;;;;;6.99;100.00;162392.91;4990875;28;20573;-62
2022/09/23 03:59:38;;;;;;;13.32;11.60;;;;;;;7.02;100.00;162400.94;4990204;28;20041;-63
2022/09/23 04:02:04;;;;;;;12.35;11.07;;;;;;;7.05;100.00;162407.66;4990984;28;20030;-63
2022/09/23 04:04:32;;;;;;;17.00;13.35;;;;;;;7.05;100.00;162407.66;4990088;28;20045;-63
2022/09/23 04:06:59;;;;;;;12.98;11.57;;;;;;;7.08;100.00;162415.78;4992945;28;20101;-63
2022/09/23 04:09:24;;;;;;;15.02;13.43;;;;;;;7.10;100.00;162421.19;4993756;28;20125;-62
2022/09/23 04:11:51;;;;;;;13.80;11.93;;;;;;;7.12;100.00;162426.53;4995714;28;20110;-63
2022/09/23 04:14:17;;;;;;;17.75;13.77;;;;;;;7.12;100.00;162426.53;4993165;28;20046;-63
2022/09/23 04:16:43;;;;;;;14.35;11.70;;;;;;;7.11;100.00;162423.88;4995132;28;20112;-63
2022/09/23 04:19:10;;;;;;;16.20;12.35;;;;;;;7.10;100.00;162421.19;4993486;28;20501;-63
2022/09/23 04:21:35;;;;;;;12.30;10.30;;;;;;;7.15;100.00;162434.63;4995070;28;20385;-63
2022/09/23 04:24:01;;;;;;;13.23;10.57;;;;;;;7.13;100.00;162429.22;4992605;28;20038;-63
2022/09/23 04:26:26;;;;;;;12.38;10.65;;;;;;;7.15;100.00;162434.63;4995316;28;20038;-64
2022/09/23 04:28:53;;;;;;;14.43;11.85;;;;;;;7.21;100.00;162450.78;4993566;28;20565;-64
2022/09/23 04:31:18;;;;;;;17.77;13.25;;;;;;;7.21;100.00;162450.78;4994385;28;20050;-64
2022/09/23 04:33:43;;;;;;;17.92;11.52;;;;;;;7.22;100.00;162453.47;4995094;28;20359;-64
2022/09/23 04:36:09;;;;;;;16.02;10.95;;;;;;;7.26;100.00;162464.22;4993414;28;20065;-64
2022/09/23 04:38:34;;;;;;;14.32;11.85;;;;;;;7.28;100.00;162469.63;4994276;28;20042;-64
2022/09/23 04:40:59;;;;;;;12.18;9.48;;;;;;;7.26;100.00;162462.91;4992265;28;20045;-64
2022/09/23 04:43:25;;;;;;;13.05;10.90;;;;;;;7.25;100.00;162461.59;4994907;28;20029;-64
2022/09/23 04:45:59;;;;;;;13.98;10.02;;;;;;;7.23;100.00;162456.19;4993118;28;20108;-65
2022/09/23 04:48:24;;;;;;;13.68;11.25;;;;;;;7.23;100.00;162456.19;4994981;28;20080;-64
2022/09/23 04:50:49;;;;;;;13.27;10.57;;;;;;;7.23;100.00;162456.19;4993465;28;20441;-64
2022/09/23 04:53:15;;;;;;;13.30;10.68;;;;;;;7.22;100.00;162453.47;4994390;28;20029;-63
2022/09/23 04:55:42;;;;;;;18.30;9.55;;;;;;;7.20;100.00;162448.06;4993215;28;20437;-64
2022/09/23 04:58:08;;;;;;;13.05;11.40;;;;;;;7.23;100.00;162456.19;4994721;28;20061;-64
2022/09/23 05:00:34;;;;;;;17.23;12.48;;;;;;;7.22;100.00;162453.47;4992893;28;20115;-64
2022/09/23 05:02:59;;;;;;;14.13;10.30;;;;;;;7.20;100.00;162448.06;4994337;28;20026;-62
2022/09/23 05:05:25;;;;;;;14.65;10.88;;;;;;;7.18;100.00;162442.72;4992920;28;20050;-62
2022/09/23 05:07:50;;;;;;;12.25;9.77;;;;;;;7.16;100.00;162437.31;4994371;28;20026;-61
2022/09/23 05:10:16;;;;;;;20.58;12.32;;;;;;;7.13;100.00;162429.22;4992930;28;20046;-60
2022/09/23 05:12:42;;;;;;;13.30;12.00;;;;;;;7.11;100.00;162423.88;4994551;28;20030;-58
2022/09/23 05:15:07;;;;;;;11.52;9.80;;;;;;;7.08;100.00;162417.09;4992386;28;20039;-58
2022/09/23 05:17:32;;;;;;;13.85;9.38;;;;;;;7.05;100.00;162409.03;4993816;28;20486;-60
2022/09/23 05:19:58;;;;;;;17.95;11.07;;;;;;;7.01;100.00;162398.25;4992106;28;20453;-60
2022/09/23 05:22:25;;;;;;;14.43;11.27;;;;;;;6.99;100.00;162394.22;4993800;28;20096;-59
2022/09/23 05:24:51;;;;;;;12.57;10.77;;;;;;;6.96;100.00;162386.13;4992993;28;20104;-59
2022/09/23 05:27:17;;;;;;;13.82;12.05;;;;;;;6.89;100.00;162367.28;4993998;28;20523;-59
2022/09/23 05:29:42;;;;;;;13.45;11.07;;;;;;;6.95;100.00;162383.47;4992748;28;20046;-59
2022/09/23 05:32:08;;;;;;;20.30;10.32;;;;;;;6.95;100.00;162382.09;4993705;28;20054;-60
2022/09/23 05:34:33;;;;;;;17.95;11.75;;;;;;;6.94;100.00;162379.41;4992499;28;20386;-60
2022/09/23 05:36:59;;;;;;;14.52;12.13;;;;;;;6.96;100.00;162386.13;4993463;28;20081;-60
2022/09/23 05:39:24;;;;;;;16.70;10.07;;;;;;;6.98;100.00;162390.19;4992656;28;20038;-59
2022/09/23 05:41:49;;;;;;;29.45;11.38;;;;;;;7.01;100.00;162396.91;4993778;28;20022;-59
2022/09/23 05:44:15;;;;;;;14.82;11.52;;;;;;;7.05;100.00;162407.66;4991953;28;20046;-59
2022/09/23 05:46:40;;;;;;;14.88;12.50;;;;;;;7.08;100.00;162415.78;4993874;28;20057;-60
2022/09/23 05:49:06;;;;;;;14.85;11.57;;;;;;;7.14;100.00;162433.31;4991918;28;20031;-59
2022/09/23 05:51:33;;;;;;;12.05;9.88;;;;;;;7.23;100.00;162456.19;4993556;28;20022;-59
2022/09/23 05:54:01;;;;;;;12.32;9.90;;;;;;;7.34;100.00;162484.47;4992244;28;20027;-59
2022/09/23 05:56:27;;;;;;;14.65;11.93;;;;;;;7.47;100.00;162518.16;4993806;28;20026;-59
2022/09/23 05:58:55;;;;;;;12.93;11.35;;;;;;;7.69;100.00;162574.72;4991812;28;20490;-59
2022/09/23 06:01:24;;;;;;;10.45;9.43;;;;;;;7.88;100.00;162624.59;4993195;28;20019;-59
2022/09/23 06:03:51;;;;;;;10.30;9.30;;;;;;;8.04;100.00;162666.34;4991703;28;20074;-59
2022/09/23 06:06:26;;;;;;;10.73;9.43;;;;;;;8.25;100.00;162722.94;4992882;28;20038;-59
2022/09/23 06:08:51;;;;;;;10.23;8.68;;;;;;;8.45;100.00;162774.13;4991789;28;20505;-59
2022/09/23 06:11:17;;;;;;;14.50;8.60;;;;;;;8.65;100.00;162825.44;4992793;28;20104;-59
2022/09/23 06:13:42;;;;;;;13.40;9.27;;;;;;;8.83;100.00;162872.63;4990968;28;20042;-59
2022/09/23 06:16:12;;;;;;;12.68;9.35;;;;;;;8.99;100.00;162914.41;4992569;28;20022;-59
2022/09/23 06:18:39;;;;;;;11.38;8.00;;;;;;;9.12;100.00;162948.13;4989671;28;20034;-59
2022/09/23 06:21:05;;;;;;;11.57;8.73;;;;;;;9.27;100.00;162988.59;5008100;28;20413;-59
2022/09/23 06:23:30;;;;;;;13.85;7.03;;;;;;;9.41;100.00;163025.03;4989677;28;20081;-59
2022/09/23 06:26:00;;;;;;;11.30;7.85;;;;;;;9.56;100.00;163064.13;4992863;28;20098;-59
2022/09/23 06:28:29;;;;;;;9.63;8.55;;;;;;;9.73;100.00;163108.63;4990760;28;20482;-60
2022/09/23 06:30:58;;;;;;;15.48;8.18;;;;;;;9.82;100.00;163132.94;4992646;28;20141;-59
2022/09/23 06:33:24;;;;;;;9.57;6.88;;;;;;;9.95;100.00;163166.66;4991313;28;20031;-59
2022/09/23 06:35:57;;;;;;;11.02;8.18;;;;;;;10.03;100.00;163186.88;4992614;28;20081;-59
2022/09/23 06:38:23;;;;;;;7.10;6.40;;;;;;;10.18;100.00;163224.66;4990408;28;20084;-58
2022/09/23 06:40:50;;;;;;;12.57;9.07;;;;;;;10.25;100.00;163244.94;4992275;28;20466;-59
2022/09/23 06:43:15;;;;;;;9.35;8.13;;;;;;;10.36;100.00;163273.25;4992258;28;20128;-59
2022/09/23 06:45:40;;;;;;;8.77;7.18;;;;;;;10.43;100.00;163292.22;4989918;28;20545;-59
2022/09/23 06:48:08;;;;;;;10.13;7.90;;;;;;;10.51;100.00;163311.09;4992420;28;20030;-59
2022/09/23 06:50:34;;;;;;;9.45;7.72;;;;;;;10.55;100.00;163321.88;4990742;28;20050;-59
2022/09/23 06:52:59;;;;;;;9.75;6.82;;;;;;;10.63;100.00;163343.50;4992297;28;20026;-59
2022/09/23 06:55:26;;;;;;;11.70;8.13;;;;;;;10.67;100.00;163354.31;4990857;28;20039;-59
2022/09/23 06:57:52;;;;;;;11.25;7.07;;;;;;;10.64;100.00;163346.19;4992201;28;20414;-59
2022/09/23 07:00:18;;;;;;;8.07;7.28;;;;;;;10.68;100.00;163355.63;4990453;28;20042;-59
2022/09/23 07:02:43;;;;;;;11.30;7.72;;;;;;;10.74;100.00;163371.84;4992524;28;20038;-59
2022/09/23 07:05:10;;;;;;;10.40;7.95;;;;;;;10.78;100.00;163384.00;4990286;28;20091;-59
2022/09/23 07:07:36;;;;;;;12.93;6.45;;;;;;;10.77;100.00;163381.28;4992254;28;20481;-59
2022/09/23 07:10:04;;;;;;;13.95;8.75;;;;;;;10.84;100.00;163397.47;4990591;28;20520;-59
2022/09/23 07:12:30;;;;;;;9.90;6.95;;;;;;;10.88;100.00;163408.28;4988885;28;20032;-59
2022/09/23 07:14:56;;;;;;;8.65;7.40;;;;;;;10.95;100.00;163428.53;5000808;28;20041;-59
2022/09/23 07:17:21;;;;;;;10.85;6.47;;;;;;;10.98;100.00;163435.31;5011671;28;20384;-59
2022/09/23 07:19:46;;;;;;;8.75;6.65;;;;;;;11.03;100.00;163448.81;5010050;28;20038;-59
2022/09/23 07:22:12;;;;;;;11.57;7.18;;;;;;;11.07;100.00;163459.59;5011159;28;20433;-59
2022/09/23 07:24:37;;;;;;;7.15;6.07;;;;;;;11.15;100.00;163478.47;5010160;28;20103;-59
2022/09/23 07:27:04;;;;;;;12.50;8.70;;;;;;;11.24;100.00;163502.81;5011380;28;20026;-59
2022/09/23 07:29:30;;;;;;;9.48;6.53;;;;;;;11.35;100.00;163532.53;5009871;28;20355;-59
2022/09/23 07:31:55;;;;;;;11.32;7.45;;;;;;;11.39;100.00;163543.31;5000281;28;20061;-59
2022/09/23 07:34:20;;;;;;;13.80;7.45;;;;;;;-146.58;100.00;69501.63;4990178;28;20053;-59
2022/09/23 07:36:46;;;;;;;13.85;6.82;;;;;;;11.61;100.00;163600.03;4994182;28;20022;-59
2022/09/23 07:39:12;;;;;;;15.07;7.45;;;;;;;11.72;100.00;163628.41;5009749;28;20509;-59
2022/09/23 07:41:37;;;;;;;11.05;7.15;;;;;;;11.87;100.00;163667.59;5000561;28;20030;-59
2022/09/23 07:44:04;;;;;;;13.85;9.27;;;;;;;11.95;100.00;163689.16;4989638;28;20548;-59
2022/09/23 07:46:33;;;;;;;15.80;7.70;;;;;;;11.98;100.00;163697.34;4991889;28;20034;-59
2022/09/23 07:48:59;;;;;;;13.70;6.35;;;;;;;12.10;100.00;163728.41;4989633;28;20038;-59
2022/09/23 07:51:28;;;;;;;15.30;8.43;;;;;;;12.15;100.00;163741.91;4992269;28;20486;-59
2022/09/23 07:53:54;;;;;;;7.55;6.28;;;;;;;12.28;100.00;163775.72;4990051;28;20030;-59
2022/09/23 07:56:22;;;;;;;11.15;7.25;;;;;;;12.42;100.00;163810.84;4991453;28;20088;-59
2022/09/23 07:59:01;;;;;;;8.25;6.38;;;;;;;12.53;100.00;163840.59;5000493;28;20042;-59
2022/09/23 08:01:28;;;;;;;;;;;;;;;12.68;100.00;163881.13;4997407;28;20514;-59
2022/09/23 08:03:57;;;;;;;14.70;6.95;;;;;;;12.79;100.00;163908.13;4990459;28;19917;-59
2022/09/23 08:06:22;;;;;;;14.65;6.57;;;;;;;12.85;100.00;163924.34;5000257;28;20108;-60
2022/09/23 08:08:48;;;;;;;9.70;6.05;;;;;;;12.94;100.00;163948.69;4991243;28;20038;-60
2022/09/23 08:11:14;;;;;;;11.65;5.88;;;;;;;12.95;100.00;163950.06;5003411;28;20087;-59
2022/09/23 08:13:40;;;;;;;9.93;5.80;;;;;;;-146.58;100.00;69501.63;5009113;28;20599;-60
2022/09/23 08:16:05;;;;;;;6.75;5.75;;;;;;;-146.58;100.00;69501.63;5010782;28;20029;-60
2022/09/23 08:18:31;;;;;;;12.55;7.47;;;;;;;-146.58;100.00;69501.63;4999263;28;20026;-60
2022/09/23 08:20:58;;;;;;;10.80;5.63;;;;;;;-146.58;100.00;69501.63;5002662;28;20037;-60
2022/09/23 08:23:23;;;;;;;7.18;5.15;;;;;;;-146.58;100.00;69501.63;4990217;28;20027;-59
2022/09/23 08:25:56;;;;;;;9.68;6.18;;;;;;;-146.58;100.00;69501.63;4993349;28;20037;-60
2022/09/23 08:28:22;;;;;;;8.27;6.07;;;;;;;-146.58;100.00;69501.63;4990053;28;20416;-60
2022/09/23 08:30:48;;;;;;;7.53;5.68;;;;;;;-146.58;100.00;69501.63;4990775;28;20084;-60
2022/09/23 08:33:14;;;;;;;8.07;6.30;;;;;;;-146.58;100.00;69501.63;4990598;28;20355;-60
2022/09/23 08:35:39;;;;;;;7.38;5.85;;;;;;;-146.58;100.00;69501.63;4989216;28;20494;-60
2022/09/23 08:38:05;;;;;;;10.85;7.80;;;;;;;12.95;100.00;163950.06;4990953;28;20073;-60
2022/09/23 08:40:36;;;;;;;10.35;6.20;;;;;;;13.77;100.00;164166.47;4989652;28;20042;-60
2022/09/23 08:43:01;;;;;;;8.15;6.80;;;;;;;13.76;100.00;164162.38;4991049;28;20378;-60
2022/09/23 08:45:27;;;;;;;7.95;5.28;;;;;;;13.77;100.00;164165.06;4989780;28;20035;-60
2022/09/23 08:47:57;;;;;;;13.55;4.60;;;;;;;13.91;100.00;164202.94;4991258;28;20029;-60
2022/09/23 08:50:41;;;;;;;9.00;5.93;;;;;;;13.88;100.00;164194.84;4989576;28;20046;-60
2022/09/23 08:53:31;;;;;;;8.70;6.75;;;;;;;13.88;100.00;164194.84;4991408;28;20030;-60
2022/09/23 08:56:01;;;;;;;10.68;5.82;;;;;;;13.94;100.00;164211.09;4993338;28;20035;-60
2022/09/23 08:58:54;;;;;;;17.67;7.85;;;;;;;-146.58;100.00;69501.63;4993215;28;20022;-60
2022/09/23 09:01:43;;;;;;;16.40;7.07;;;;;;;14.30;100.00;164304.38;4994202;28;20517;-60
2022/09/23 09:04:12;;;;;;;8.98;6.03;;;;;;;14.45;100.00;164343.66;4992826;28;20035;-60
2022/09/23 09:06:49;;;;;;;9.13;6.78;;;;;;;-146.58;100.00;69501.63;4994609;28;20030;-60
2022/09/23 09:09:31;;;;;;;9.18;6.72;;;;;;;14.45;100.00;164343.66;4992890;28;20065;-60
2022/09/23 09:12:03;;;;;;;10.38;6.53;;;;;;;14.80;100.00;164435.69;4994278;28;20081;-60
2022/09/23 09:14:35;;;;;;;11.38;7.13;;;;;;;14.94;100.00;164470.88;4993110;28;20049;-60
2022/09/23 09:17:20;;;;;;;10.65;6.13;;;;;;;15.06;100.00;164504.72;4993458;28;20033;-60
2022/09/23 09:19:52;;;;;;;8.25;4.78;;;;;;;15.12;100.00;164519.59;4991843;28;20585;-60
2022/09/23 09:22:47;;;;;;;12.52;5.53;;;;;;;15.09;100.00;164511.47;4994118;28;20026;-60
2022/09/23 09:25:49;;;;;;;13.88;5.50;;;;;;;15.18;100.00;164535.84;4992467;28;20069;-60
2022/09/23 09:28:30;;;;;;;5.45;4.55;;;;;;;15.32;100.00;164571.03;4992520;28;20286;-60
2022/09/23 09:30:59;;;;;;;9.88;6.07;;;;;;;-146.58;100.00;69501.63;4992643;28;20081;-60
2022/09/23 09:33:42;;;;;;;15.00;6.50;;;;;;;15.77;100.00;164690.16;4992326;28;20058;-60
2022/09/23 09:36:20;;;;;;;4.93;4.47;;;;;;;-146.58;100.00;69501.63;4993893;28;20030;-60
2022/09/23 09:38:46;;;;;;;5.88;4.40;;;;;;;15.95;100.00;164736.28;4992567;28;20042;-60
2022/09/23 09:41:14;;;;;;;6.95;4.80;;;;;;;16.27;100.00;164820.25;4993243;28;20084;-60
2022/09/23 09:43:40;;;;;;;6.50;5.13;;;;;;;16.54;100.00;164890.66;4992670;28;20030;-60
2022/09/23 09:46:33;;;;;;;8.80;5.25;;;;;;;16.63;100.00;164915.06;4988677;28;20073;-58
2022/09/23 09:49:10;;;;;;;5.63;5.13;;;;;;;16.65;100.00;164921.84;4972405;28;20067;-60
2022/09/23 09:51:40;;;;;;;5.45;4.70;;;;;;;16.62;100.00;164912.34;4974164;28;20055;-60
2022/09/23 09:54:23;;;;;;;6.95;5.78;;;;;;;16.43;100.00;164862.22;4981243;28;20077;-60
2022/09/23 09:56:50;;;;;;;8.07;4.40;;;;;;;16.40;100.00;164855.47;4993000;28;20077;-60
2022/09/23 09:59:24;;;;;;;6.07;4.70;;;;;;;16.49;100.00;164879.81;4991897;28;20129;-60
2022/09/23 10:02:12;;;;;;;8.20;4.45;;;;;;;16.54;100.00;164892.00;4993536;28;20027;-61
2022/09/23 10:04:38;;;;;;;5.60;4.68;;;;;;;16.61;100.00;164909.63;4990794;28;20045;-60
2022/09/23 10:07:14;;;;;;;12.63;5.10;;;;;;;16.68;100.00;164927.25;4993246;28;20478;-60
2022/09/23 10:09:47;;;;;;;6.45;4.47;;;;;;;16.75;100.00;164946.22;4992041;28;20045;-60
2022/09/23 10:12:20;;;;;;;7.50;5.03;;;;;;;16.78;100.00;164955.72;4992761;28;20549;-60
2022/09/23 10:14:52;;;;;;;5.65;4.70;;;;;;;16.80;100.00;164961.09;4991831;28;20129;-61
2022/09/23 10:17:23;;;;;;;7.47;6.30;;;;;;;16.76;100.00;164950.28;4993316;28;20065;-60
2022/09/23 10:19:59;;;;;;;11.65;5.18;;;;;;;16.58;100.00;164901.47;4991438;28;20444;-61
2022/09/23 10:22:28;;;;;;;13.73;5.40;;;;;;;16.48;100.00;164875.75;4993319;28;20022;-61
2022/09/23 10:24:57;;;;;;;9.10;4.97;;;;;;;16.55;100.00;164894.72;4991034;28;20042;-65
2022/09/23 10:27:33;;;;;;;;;;;;;;;16.61;100.00;164910.97;4985163;28;20034;-61
2022/09/23 10:30:02;;;;;;;7.78;4.82;;;;;;;16.63;100.00;164915.06;4991161;28;20456;-61
2022/09/23 10:32:39;;;;;;;8.05;4.85;;;;;;;16.60;100.00;164906.91;4992808;28;20386;-61
2022/09/23 10:35:13;;;;;;;9.20;6.03;;;;;;;16.71;100.00;164936.75;4991053;28;20046;-61
2022/09/23 10:37:41;;;;;;;11.57;4.93;;;;;;;16.72;100.00;164938.06;4993137;28;20026;-61
2022/09/23 10:46:40;;;;;;;11.40;6.82;;;;;;;17.29;100.00;165089.88;4989903;28;20544;-61
2022/09/23 10:49:40;;;;;;;5.95;5.25;;;;;;;17.37;100.00;165110.22;4990348;28;20505;-60
2022/09/23 10:52:34;;;;;;;9.82;6.05;;;;;;;17.39;100.00;165115.59;4992561;28;20030;-60
2022/09/23 10:55:26;;;;;;;6.53;5.05;;;;;;;17.48;100.00;165138.69;4990528;28;20121;-60
2022/09/23 10:58:03;;;;;;;5.45;4.95;;;;;;;17.66;100.00;165186.13;4992502;28;20022;-60
2022/09/23 11:00:50;;;;;;;6.10;5.20;;;;;;;17.74;100.00;165207.81;4991057;28;20093;-60
2022/09/23 11:03:40;;;;;;;14.23;5.97;;;;;;;17.67;100.00;165188.84;4991882;28;20026;-60
2022/09/23 11:06:27;;;;;;;9.10;5.70;;;;;;;17.67;100.00;165188.84;4990911;28;20076;-60
2022/09/23 11:09:18;;;;;;;10.98;4.88;;;;;;;17.74;100.00;165206.44;4990783;28;20528;-59
2022/09/23 11:11:50;;;;;;;10.90;4.47;;;;;;;17.82;100.00;165226.78;4991928;28;20057;-60
2022/09/23 11:14:50;;;;;;;7.43;5.15;;;;;;;17.88;100.00;165244.38;4990524;28;20043;-60
2022/09/23 11:17:41;;;;;;;9.00;6.70;;;;;;;17.88;100.00;165244.38;4989933;28;20045;-60
2022/09/23 11:20:22;;;;;;;19.90;8.05;;;;;;;17.71;100.00;165199.66;4990332;28;20502;-60
2022/09/23 11:23:17;;;;;;;8.13;4.88;;;;;;;17.70;100.00;165196.94;4992055;28;20065;-60
2022/09/23 11:26:10;;;;;;;8.95;4.72;;;;;;;17.91;100.00;165251.16;4989816;28;20120;-60
2022/09/23 11:29:04;;;;;;;6.65;5.78;;;;;;;17.80;100.00;165221.34;4990708;28;20038;-60
2022/09/23 11:31:53;;;;;;;7.15;5.60;;;;;;;17.62;100.00;165173.91;4990788;28;20077;-60
2022/09/23 11:34:30;;;;;;;10.75;6.05;;;;;;;17.77;100.00;165214.56;4987765;28;20134;-59
2022/09/23 11:37:08;;;;;;;6.50;5.55;;;;;;;17.92;100.00;165253.88;4981209;28;20425;-60
2022/09/23 11:39:48;;;;;;;6.97;5.10;;;;;;;18.10;100.00;165300.03;4989120;28;20488;-59